sensor_id;sensor_type;location;lat;lon;timestamp;P1;durP1;ratioP1;P2;durP2;ratioP2
10299;SDS011;5195;48.562;9.192;2024-03-23T00:56:07;6.10;;;5.70;;
10299;SDS011;5195;48.562;9.192;2024-03-23T00:58:45;5.30;;;4.73;;
10299;SDS011;5195;48.562;9.192;2024-03-23T01:01:20;5.30;;;4.80;;
10299;SDS011;5195;48.562;9.192;2024-03-23T01:03:56;5.37;;;4.90;;
10299;SDS011;5195;48.562;9.192;2024-03-23T01:06:32;4.80;;;4.20;;
10299;SDS011;5195;48.562;9.192;2024-03-23T01:09:09;4.60;;;4.30;;
10299;SDS011;5195;48.562;9.192;2024-03-23T01:11:46;4.53;;;4.10;;
10299;SDS011;5195;48.562;9.192;2024-03-23T01:14:22;4.43;;;4.03;;
10299;SDS011;5195;48.562;9.192;2024-03-23T01:16:57;4.05;;;3.65;;
10299;SDS011;5195;48.562;9.192;2024-03-23T01:19:34;3.37;;;3.10;;
10299;SDS011;5195;48.562;9.192;2024-03-23T01:22:12;3.40;;;3.20;;
10299;SDS011;5195;48.562;9.192;2024-03-23T01:24:48;4.27;;;3.87;;
10299;SDS011;5195;48.562;9.192;2024-03-23T01:27:23;3.67;;;3.47;;
10299;SDS011;5195;48.562;9.192;2024-03-23T01:29:59;4.77;;;4.47;;
10299;SDS011;5195;48.562;9.192;2024-03-23T01:32:34;4.37;;;3.93;;
10299;SDS011;5195;48.562;9.192;2024-03-23T01:35:11;4.23;;;3.83;;
10299;SDS011;5195;48.562;9.192;2024-03-23T01:37:46;5.10;;;4.23;;
10299;SDS011;5195;48.562;9.192;2024-03-23T01:40:22;5.07;;;4.57;;
10299;SDS011;5195;48.562;9.192;2024-03-23T01:42:58;5.30;;;4.40;;
10299;SDS011;5195;48.562;9.192;2024-03-23T01:45:33;4.50;;;3.80;;
10299;SDS011;5195;48.562;9.192;2024-03-23T01:48:09;4.07;;;3.67;;
10299;SDS011;5195;48.562;9.192;2024-03-23T01:50:46;4.77;;;4.37;;
10299;SDS011;5195;48.562;9.192;2024-03-23T01:53:21;4.70;;;3.73;;
10299;SDS011;5195;48.562;9.192;2024-03-23T01:55:57;5.68;;;4.10;;
10299;SDS011;5195;48.562;9.192;2024-03-23T01:58:33;4.17;;;3.77;;
10299;SDS011;5195;48.562;9.192;2024-03-23T02:01:08;3.20;;;2.90;;
10299;SDS011;5195;48.562;9.192;2024-03-23T02:03:44;3.30;;;3.10;;
10299;SDS011;5195;48.562;9.192;2024-03-23T02:06:19;3.40;;;3.03;;
10299;SDS011;5195;48.562;9.192;2024-03-23T02:08:56;3.87;;;3.00;;
10299;SDS011;5195;48.562;9.192;2024-03-23T02:11:32;3.22;;;3.00;;
10299;SDS011;5195;48.562;9.192;2024-03-23T02:14:07;2.60;;;2.40;;
10299;SDS011;5195;48.562;9.192;2024-03-23T02:16:43;2.87;;;2.67;;
10299;SDS011;5195;48.562;9.192;2024-03-23T02:19:18;3.60;;;3.10;;
10299;SDS011;5195;48.562;9.192;2024-03-23T02:21:54;3.47;;;3.17;;
10299;SDS011;5195;48.562;9.192;2024-03-23T02:24:29;3.60;;;2.92;;
10299;SDS011;5195;48.562;9.192;2024-03-23T02:27:05;2.90;;;2.70;;
10299;SDS011;5195;48.562;9.192;2024-03-23T02:29:41;2.80;;;2.60;;
10299;SDS011;5195;48.562;9.192;2024-03-23T02:32:16;3.45;;;2.50;;
10299;SDS011;5195;48.562;9.192;2024-03-23T02:34:52;2.77;;;2.53;;
10299;SDS011;5195;48.562;9.192;2024-03-23T02:37:27;2.70;;;2.60;;
10299;SDS011;5195;48.562;9.192;2024-03-23T02:40:04;3.03;;;2.47;;
10299;SDS011;5195;48.562;9.192;2024-03-23T02:42:40;3.00;;;2.53;;
10299;SDS011;5195;48.562;9.192;2024-03-23T02:45:16;2.62;;;2.35;;
10299;SDS011;5195;48.562;9.192;2024-03-23T02:47:53;6.37;;;2.53;;
10299;SDS011;5195;48.562;9.192;2024-03-23T02:50:29;2.30;;;2.20;;
10299;SDS011;5195;48.562;9.192;2024-03-23T02:53:05;2.60;;;2.40;;
10299;SDS011;5195;48.562;9.192;2024-03-23T02:55:41;3.73;;;2.60;;
10299;SDS011;5195;48.562;9.192;2024-03-23T02:58:16;2.80;;;2.10;;
10299;SDS011;5195;48.562;9.192;2024-03-23T03:00:52;2.40;;;2.20;;
10299;SDS011;5195;48.562;9.192;2024-03-23T03:03:28;2.60;;;2.40;;
10299;SDS011;5195;48.562;9.192;2024-03-23T03:06:03;2.75;;;2.55;;
10299;SDS011;5195;48.562;9.192;2024-03-23T03:08:39;2.90;;;2.60;;
10299;SDS011;5195;48.562;9.192;2024-03-23T03:11:14;2.60;;;2.30;;
10299;SDS011;5195;48.562;9.192;2024-03-23T03:13:50;2.47;;;2.30;;
10299;SDS011;5195;48.562;9.192;2024-03-23T03:16:26;2.50;;;2.37;;
10299;SDS011;5195;48.562;9.192;2024-03-23T03:19:03;2.23;;;2.13;;
10299;SDS011;5195;48.562;9.192;2024-03-23T03:21:38;2.10;;;2.00;;
10299;SDS011;5195;48.562;9.192;2024-03-23T03:24:14;2.77;;;2.57;;
10299;SDS011;5195;48.562;9.192;2024-03-23T03:26:49;2.67;;;2.47;;
10299;SDS011;5195;48.562;9.192;2024-03-23T03:29:26;2.33;;;2.20;;
10299;SDS011;5195;48.562;9.192;2024-03-23T03:32:03;2.62;;;2.42;;
10299;SDS011;5195;48.562;9.192;2024-03-23T03:34:39;3.07;;;2.00;;
10299;SDS011;5195;48.562;9.192;2024-03-23T03:37:14;2.30;;;2.10;;
10299;SDS011;5195;48.562;9.192;2024-03-23T03:39:50;2.40;;;2.30;;
10299;SDS011;5195;48.562;9.192;2024-03-23T03:42:26;2.50;;;2.40;;
10299;SDS011;5195;48.562;9.192;2024-03-23T03:45:01;2.47;;;2.20;;
10299;SDS011;5195;48.562;9.192;2024-03-23T03:47:37;2.90;;;2.50;;
10299;SDS011;5195;48.562;9.192;2024-03-23T03:50:14;2.77;;;2.53;;
10299;SDS011;5195;48.562;9.192;2024-03-23T03:52:49;2.53;;;2.33;;
10299;SDS011;5195;48.562;9.192;2024-03-23T03:55:25;2.80;;;2.40;;
10299;SDS011;5195;48.562;9.192;2024-03-23T03:58:03;3.17;;;2.60;;
10299;SDS011;5195;48.562;9.192;2024-03-23T04:00:38;2.60;;;2.40;;
10299;SDS011;5195;48.562;9.192;2024-03-23T04:03:14;5.07;;;3.03;;
10299;SDS011;5195;48.562;9.192;2024-03-23T04:05:51;2.20;;;2.10;;
10299;SDS011;5195;48.562;9.192;2024-03-23T04:08:26;2.23;;;2.13;;
10299;SDS011;5195;48.562;9.192;2024-03-23T04:11:02;2.73;;;2.50;;
10299;SDS011;5195;48.562;9.192;2024-03-23T04:13:37;3.20;;;2.90;;
10299;SDS011;5195;48.562;9.192;2024-03-23T04:16:13;3.63;;;3.03;;
10299;SDS011;5195;48.562;9.192;2024-03-23T04:18:48;3.08;;;2.87;;
10299;SDS011;5195;48.562;9.192;2024-03-23T04:21:25;2.80;;;2.70;;
10299;SDS011;5195;48.562;9.192;2024-03-23T04:24:01;3.00;;;2.80;;
10299;SDS011;5195;48.562;9.192;2024-03-23T04:26:40;3.20;;;3.00;;
10299;SDS011;5195;48.562;9.192;2024-03-23T04:29:15;2.13;;;2.03;;
10299;SDS011;5195;48.562;9.192;2024-03-23T04:31:51;3.30;;;3.10;;
10299;SDS011;5195;48.562;9.192;2024-03-23T04:34:27;4.13;;;3.00;;
10299;SDS011;5195;48.562;9.192;2024-03-23T04:37:04;2.93;;;2.70;;
10299;SDS011;5195;48.562;9.192;2024-03-23T04:39:39;4.18;;;2.90;;
10299;SDS011;5195;48.562;9.192;2024-03-23T04:42:15;3.07;;;2.87;;
10299;SDS011;5195;48.562;9.192;2024-03-23T04:44:51;3.07;;;2.50;;
10299;SDS011;5195;48.562;9.192;2024-03-23T04:47:29;3.10;;;2.33;;
10299;SDS011;5195;48.562;9.192;2024-03-23T04:50:05;2.80;;;2.70;;
10299;SDS011;5195;48.562;9.192;2024-03-23T04:52:43;2.90;;;2.70;;
10299;SDS011;5195;48.562;9.192;2024-03-23T04:55:20;3.27;;;2.80;;
10299;SDS011;5195;48.562;9.192;2024-03-23T04:57:55;2.63;;;2.53;;
10299;SDS011;5195;48.562;9.192;2024-03-23T05:00:31;2.85;;;2.65;;
10299;SDS011;5195;48.562;9.192;2024-03-23T05:03:06;2.60;;;2.40;;
10299;SDS011;5195;48.562;9.192;2024-03-23T05:05:42;2.57;;;2.37;;
10299;SDS011;5195;48.562;9.192;2024-03-23T05:08:18;2.57;;;2.40;;
10299;SDS011;5195;48.562;9.192;2024-03-23T05:10:57;2.80;;;2.60;;
10299;SDS011;5195;48.562;9.192;2024-03-23T05:13:32;3.67;;;2.43;;
10299;SDS011;5195;48.562;9.192;2024-03-23T05:16:08;3.33;;;2.60;;
10299;SDS011;5195;48.562;9.192;2024-03-23T05:18:43;2.50;;;2.30;;
10299;SDS011;5195;48.562;9.192;2024-03-23T05:21:19;3.73;;;3.00;;
10299;SDS011;5195;48.562;9.192;2024-03-23T05:23:54;3.80;;;2.90;;
10299;SDS011;5195;48.562;9.192;2024-03-23T05:26:30;3.20;;;2.97;;
10299;SDS011;5195;48.562;9.192;2024-03-23T05:29:10;4.87;;;3.20;;
10299;SDS011;5195;48.562;9.192;2024-03-23T05:31:49;3.23;;;2.93;;
10299;SDS011;5195;48.562;9.192;2024-03-23T05:34:23;2.77;;;2.57;;
10299;SDS011;5195;48.562;9.192;2024-03-23T05:36:58;3.93;;;3.63;;
10299;SDS011;5195;48.562;9.192;2024-03-23T05:39:34;4.90;;;4.50;;
10299;SDS011;5195;48.562;9.192;2024-03-23T05:42:10;5.03;;;4.73;;
10299;SDS011;5195;48.562;9.192;2024-03-23T05:44:46;4.43;;;4.13;;
10299;SDS011;5195;48.562;9.192;2024-03-23T05:47:22;5.95;;;5.55;;
10299;SDS011;5195;48.562;9.192;2024-03-23T05:49:58;6.37;;;5.97;;
10299;SDS011;5195;48.562;9.192;2024-03-23T05:52:33;6.90;;;6.40;;
10299;SDS011;5195;48.562;9.192;2024-03-23T05:55:09;7.22;;;6.80;;
10299;SDS011;5195;48.562;9.192;2024-03-23T05:57:44;7.23;;;6.73;;
10299;SDS011;5195;48.562;9.192;2024-03-23T06:00:21;6.70;;;5.70;;
10299;SDS011;5195;48.562;9.192;2024-03-23T06:02:56;7.03;;;6.43;;
10299;SDS011;5195;48.562;9.192;2024-03-23T06:05:32;7.00;;;6.50;;
10299;SDS011;5195;48.562;9.192;2024-03-23T06:08:07;7.43;;;6.90;;
10299;SDS011;5195;48.562;9.192;2024-03-23T06:10:43;6.17;;;5.73;;
10299;SDS011;5195;48.562;9.192;2024-03-23T06:13:20;6.40;;;6.00;;
10299;SDS011;5195;48.562;9.192;2024-03-23T06:15:57;5.33;;;4.93;;
10299;SDS011;5195;48.562;9.192;2024-03-23T06:18:33;6.40;;;5.97;;
10299;SDS011;5195;48.562;9.192;2024-03-23T06:21:13;6.07;;;5.65;;
10299;SDS011;5195;48.562;9.192;2024-03-23T06:23:46;4.47;;;4.25;;
10299;SDS011;5195;48.562;9.192;2024-03-23T06:26:28;4.03;;;3.70;;
10299;SDS011;5195;48.562;9.192;2024-03-23T06:29:04;3.50;;;3.30;;
10299;SDS011;5195;48.562;9.192;2024-03-23T06:31:41;2.60;;;2.50;;
10299;SDS011;5195;48.562;9.192;2024-03-23T06:34:16;3.03;;;2.83;;
10299;SDS011;5195;48.562;9.192;2024-03-23T06:36:52;2.40;;;2.30;;
10299;SDS011;5195;48.562;9.192;2024-03-23T06:39:28;2.13;;;2.03;;
10299;SDS011;5195;48.562;9.192;2024-03-23T06:42:03;2.07;;;1.97;;
10299;SDS011;5195;48.562;9.192;2024-03-23T06:44:40;1.50;;;1.50;;
10299;SDS011;5195;48.562;9.192;2024-03-23T06:47:16;1.77;;;1.67;;
10299;SDS011;5195;48.562;9.192;2024-03-23T06:49:52;1.87;;;1.67;;
10299;SDS011;5195;48.562;9.192;2024-03-23T06:52:28;1.30;;;1.30;;
10299;SDS011;5195;48.562;9.192;2024-03-23T06:55:04;1.83;;;1.73;;
10299;SDS011;5195;48.562;9.192;2024-03-23T06:57:39;1.70;;;1.60;;
10299;SDS011;5195;48.562;9.192;2024-03-23T07:00:15;1.50;;;1.42;;
10299;SDS011;5195;48.562;9.192;2024-03-23T07:02:51;1.47;;;1.37;;
10299;SDS011;5195;48.562;9.192;2024-03-23T07:05:26;1.33;;;1.30;;
10299;SDS011;5195;48.562;9.192;2024-03-23T07:08:03;0.80;;;0.80;;
10299;SDS011;5195;48.562;9.192;2024-03-23T07:10:39;0.85;;;0.85;;
10299;SDS011;5195;48.562;9.192;2024-03-23T07:13:14;0.80;;;0.80;;
10299;SDS011;5195;48.562;9.192;2024-03-23T07:15:53;0.80;;;0.60;;
10299;SDS011;5195;48.562;9.192;2024-03-23T07:18:29;0.60;;;0.60;;
10299;SDS011;5195;48.562;9.192;2024-03-23T07:21:05;0.40;;;0.40;;
10299;SDS011;5195;48.562;9.192;2024-03-23T07:23:44;0.57;;;0.57;;
10299;SDS011;5195;48.562;9.192;2024-03-23T07:26:20;0.50;;;0.50;;
10299;SDS011;5195;48.562;9.192;2024-03-23T07:28:55;0.30;;;0.30;;
10299;SDS011;5195;48.562;9.192;2024-03-23T07:31:31;0.50;;;0.50;;
10299;SDS011;5195;48.562;9.192;2024-03-23T07:34:07;0.50;;;0.50;;
10299;SDS011;5195;48.562;9.192;2024-03-23T07:36:43;0.40;;;0.40;;
10299;SDS011;5195;48.562;9.192;2024-03-23T07:39:18;0.40;;;0.40;;
10299;SDS011;5195;48.562;9.192;2024-03-23T07:41:54;0.47;;;0.47;;
10299;SDS011;5195;48.562;9.192;2024-03-23T07:44:29;0.50;;;0.40;;
10299;SDS011;5195;48.562;9.192;2024-03-23T07:47:05;0.40;;;0.40;;
10299;SDS011;5195;48.562;9.192;2024-03-23T07:49:41;0.40;;;0.40;;
10299;SDS011;5195;48.562;9.192;2024-03-23T07:52:18;0.40;;;0.40;;
10299;SDS011;5195;48.562;9.192;2024-03-23T07:54:48;0.40;;;0.40;;
10299;SDS011;5195;48.562;9.192;2024-03-23T07:57:13;0.50;;;0.20;;
10299;SDS011;5195;48.562;9.192;2024-03-23T07:59:39;0.30;;;0.30;;
10299;SDS011;5195;48.562;9.192;2024-03-23T08:02:05;0.30;;;0.30;;
10299;SDS011;5195;48.562;9.192;2024-03-23T08:04:31;0.20;;;0.20;;
10299;SDS011;5195;48.562;9.192;2024-03-23T08:06:58;0.27;;;0.27;;
10299;SDS011;5195;48.562;9.192;2024-03-23T08:09:23;0.20;;;0.20;;
10299;SDS011;5195;48.562;9.192;2024-03-23T08:11:49;0.40;;;0.30;;
10299;SDS011;5195;48.562;9.192;2024-03-23T08:14:15;0.20;;;0.20;;
10299;SDS011;5195;48.562;9.192;2024-03-23T08:16:40;0.20;;;0.20;;
10299;SDS011;5195;48.562;9.192;2024-03-23T08:19:06;0.30;;;0.30;;
10299;SDS011;5195;48.562;9.192;2024-03-23T08:21:33;0.30;;;0.20;;
10299;SDS011;5195;48.562;9.192;2024-03-23T08:23:58;1.37;;;1.35;;
10299;SDS011;5195;48.562;9.192;2024-03-23T08:26:24;2.60;;;2.40;;
10299;SDS011;5195;48.562;9.192;2024-03-23T08:28:50;0.77;;;0.67;;
10299;SDS011;5195;48.562;9.192;2024-03-23T08:31:16;0.97;;;0.87;;
10299;SDS011;5195;48.562;9.192;2024-03-23T08:33:43;0.70;;;0.70;;
10299;SDS011;5195;48.562;9.192;2024-03-23T08:36:09;0.70;;;0.70;;
10299;SDS011;5195;48.562;9.192;2024-03-23T08:38:38;1.07;;;0.97;;
10299;SDS011;5195;48.562;9.192;2024-03-23T08:41:04;1.08;;;0.95;;
10299;SDS011;5195;48.562;9.192;2024-03-23T08:43:33;2.13;;;2.03;;
10299;SDS011;5195;48.562;9.192;2024-03-23T08:46:16;3.30;;;1.83;;
10299;SDS011;5195;48.562;9.192;2024-03-23T08:48:42;2.33;;;1.90;;
10299;SDS011;5195;48.562;9.192;2024-03-23T08:51:07;4.27;;;3.93;;
10299;SDS011;5195;48.562;9.192;2024-03-23T08:53:36;3.87;;;3.57;;
10299;SDS011;5195;48.562;9.192;2024-03-23T08:56:02;1.60;;;1.50;;
10299;SDS011;5195;48.562;9.192;2024-03-23T08:58:27;1.75;;;1.65;;
10299;SDS011;5195;48.562;9.192;2024-03-23T09:00:53;2.45;;;2.25;;
10299;SDS011;5195;48.562;9.192;2024-03-23T09:03:18;1.80;;;1.70;;
10299;SDS011;5195;48.562;9.192;2024-03-23T09:05:45;1.53;;;1.43;;
10299;SDS011;5195;48.562;9.192;2024-03-23T09:08:10;3.30;;;2.12;;
10299;SDS011;5195;48.562;9.192;2024-03-23T09:10:40;1.70;;;1.60;;
10299;SDS011;5195;48.562;9.192;2024-03-23T09:13:05;1.63;;;1.50;;
10299;SDS011;5195;48.562;9.192;2024-03-23T09:15:34;1.85;;;1.60;;
10299;SDS011;5195;48.562;9.192;2024-03-23T09:18:01;2.28;;;1.73;;
10299;SDS011;5195;48.562;9.192;2024-03-23T09:20:26;1.97;;;1.60;;
10299;SDS011;5195;48.562;9.192;2024-03-23T09:22:52;3.40;;;1.80;;
10299;SDS011;5195;48.562;9.192;2024-03-23T09:25:18;2.70;;;2.00;;
10299;SDS011;5195;48.562;9.192;2024-03-23T09:27:48;4.22;;;2.30;;
10299;SDS011;5195;48.562;9.192;2024-03-23T09:30:10;2.50;;;2.30;;
10299;SDS011;5195;48.562;9.192;2024-03-23T09:32:36;4.00;;;2.57;;
10299;SDS011;5195;48.562;9.192;2024-03-23T09:35:02;2.60;;;2.37;;
10299;SDS011;5195;48.562;9.192;2024-03-23T09:37:28;5.13;;;3.20;;
10299;SDS011;5195;48.562;9.192;2024-03-23T09:39:53;3.15;;;2.83;;
10299;SDS011;5195;48.562;9.192;2024-03-23T09:42:19;4.53;;;3.40;;
10299;SDS011;5195;48.562;9.192;2024-03-23T09:44:45;2.67;;;2.47;;
10299;SDS011;5195;48.562;9.192;2024-03-23T09:47:10;3.95;;;3.22;;
10299;SDS011;5195;48.562;9.192;2024-03-23T09:49:37;2.60;;;2.40;;
10299;SDS011;5195;48.562;9.192;2024-03-23T09:52:02;2.80;;;2.50;;
10299;SDS011;5195;48.562;9.192;2024-03-23T09:54:27;3.33;;;2.72;;
10299;SDS011;5195;48.562;9.192;2024-03-23T09:56:53;2.87;;;2.57;;
10299;SDS011;5195;48.562;9.192;2024-03-23T09:59:19;2.13;;;2.03;;
10299;SDS011;5195;48.562;9.192;2024-03-23T10:01:46;2.80;;;2.20;;
10299;SDS011;5195;48.562;9.192;2024-03-23T10:04:35;2.37;;;2.10;;
10299;SDS011;5195;48.562;9.192;2024-03-23T10:06:38;2.63;;;2.23;;
10299;SDS011;5195;48.562;9.192;2024-03-23T10:09:12;2.77;;;2.10;;
10299;SDS011;5195;48.562;9.192;2024-03-23T10:11:30;3.05;;;2.40;;
10299;SDS011;5195;48.562;9.192;2024-03-23T10:13:57;4.30;;;3.70;;
10299;SDS011;5195;48.562;9.192;2024-03-23T10:16:23;3.97;;;2.20;;
10299;SDS011;5195;48.562;9.192;2024-03-23T10:18:49;2.87;;;2.50;;
10299;SDS011;5195;48.562;9.192;2024-03-23T10:21:15;2.97;;;2.00;;
10299;SDS011;5195;48.562;9.192;2024-03-23T10:23:43;4.10;;;2.72;;
10299;SDS011;5195;48.562;9.192;2024-03-23T10:26:23;2.93;;;2.40;;
10299;SDS011;5195;48.562;9.192;2024-03-23T10:28:52;3.50;;;2.75;;
10299;SDS011;5195;48.562;9.192;2024-03-23T10:31:17;4.07;;;2.70;;
10299;SDS011;5195;48.562;9.192;2024-03-23T10:33:47;4.90;;;3.10;;
10299;SDS011;5195;48.562;9.192;2024-03-23T10:36:13;3.87;;;2.03;;
10299;SDS011;5195;48.562;9.192;2024-03-23T10:38:43;4.63;;;2.33;;
10299;SDS011;5195;48.562;9.192;2024-03-23T10:41:10;4.43;;;2.80;;
10299;SDS011;5195;48.562;9.192;2024-03-23T10:43:37;3.40;;;2.20;;
10299;SDS011;5195;48.562;9.192;2024-03-23T10:46:02;4.47;;;2.47;;
10299;SDS011;5195;48.562;9.192;2024-03-23T10:48:27;3.53;;;2.90;;
10299;SDS011;5195;48.562;9.192;2024-03-23T10:50:54;4.28;;;3.00;;
10299;SDS011;5195;48.562;9.192;2024-03-23T10:53:25;2.60;;;2.40;;
10299;SDS011;5195;48.562;9.192;2024-03-23T10:55:49;4.30;;;3.03;;
10299;SDS011;5195;48.562;9.192;2024-03-23T10:58:15;3.97;;;3.00;;
10299;SDS011;5195;48.562;9.192;2024-03-23T11:00:40;4.87;;;3.07;;
10299;SDS011;5195;48.562;9.192;2024-03-23T11:05:56;2.90;;;2.30;;
10299;SDS011;5195;48.562;9.192;2024-03-23T11:08:29;3.03;;;1.93;;
10299;SDS011;5195;48.562;9.192;2024-03-23T11:13:43;1.53;;;1.43;;
10299;SDS011;5195;48.562;9.192;2024-03-23T11:16:12;1.70;;;1.17;;
10299;SDS011;5195;48.562;9.192;2024-03-23T11:18:37;2.90;;;1.40;;
10299;SDS011;5195;48.562;9.192;2024-03-23T11:21:04;2.55;;;1.50;;
10299;SDS011;5195;48.562;9.192;2024-03-23T11:23:29;1.53;;;1.43;;
10299;SDS011;5195;48.562;9.192;2024-03-23T11:25:55;2.72;;;2.00;;
10299;SDS011;5195;48.562;9.192;2024-03-23T11:28:24;3.90;;;1.85;;
10299;SDS011;5195;48.562;9.192;2024-03-23T11:30:50;2.87;;;1.70;;
10299;SDS011;5195;48.562;9.192;2024-03-23T11:33:16;2.33;;;1.60;;
10299;SDS011;5195;48.562;9.192;2024-03-23T11:35:42;3.22;;;1.73;;
10299;SDS011;5195;48.562;9.192;2024-03-23T11:38:09;1.60;;;1.47;;
10299;SDS011;5195;48.562;9.192;2024-03-23T11:40:38;3.47;;;1.60;;
10299;SDS011;5195;48.562;9.192;2024-03-23T11:43:13;4.17;;;1.47;;
10299;SDS011;5195;48.562;9.192;2024-03-23T11:48:16;3.30;;;1.40;;
10299;SDS011;5195;48.562;9.192;2024-03-23T11:50:42;2.73;;;1.43;;
10299;SDS011;5195;48.562;9.192;2024-03-23T11:53:08;2.23;;;1.07;;
10299;SDS011;5195;48.562;9.192;2024-03-23T11:58:17;2.73;;;1.63;;
10299;SDS011;5195;48.562;9.192;2024-03-23T12:00:43;2.83;;;1.60;;
10299;SDS011;5195;48.562;9.192;2024-03-23T12:03:08;2.97;;;1.40;;
10299;SDS011;5195;48.562;9.192;2024-03-23T12:05:33;3.73;;;1.50;;
10299;SDS011;5195;48.562;9.192;2024-03-23T12:08:16;3.35;;;1.70;;
10299;SDS011;5195;48.562;9.192;2024-03-23T12:10:47;2.37;;;1.43;;
10299;SDS011;5195;48.562;9.192;2024-03-23T12:13:11;2.90;;;1.70;;
10299;SDS011;5195;48.562;9.192;2024-03-23T12:15:41;3.87;;;1.77;;
10299;SDS011;5195;48.562;9.192;2024-03-23T12:18:07;6.20;;;1.90;;
10299;SDS011;5195;48.562;9.192;2024-03-23T12:20:34;4.97;;;2.00;;
10299;SDS011;5195;48.562;9.192;2024-03-23T12:23:07;3.83;;;1.53;;
10299;SDS011;5195;48.562;9.192;2024-03-23T12:25:32;5.93;;;1.67;;
10299;SDS011;5195;48.562;9.192;2024-03-23T12:27:58;3.08;;;1.98;;
10299;SDS011;5195;48.562;9.192;2024-03-23T12:30:24;4.03;;;1.77;;
10299;SDS011;5195;48.562;9.192;2024-03-23T12:32:49;4.20;;;2.20;;
10299;SDS011;5195;48.562;9.192;2024-03-23T12:35:15;3.63;;;1.83;;
10299;SDS011;5195;48.562;9.192;2024-03-23T12:37:43;3.53;;;1.97;;
10299;SDS011;5195;48.562;9.192;2024-03-23T12:40:10;2.20;;;1.73;;
10299;SDS011;5195;48.562;9.192;2024-03-23T19:12:26;0.70;;;0.67;;
10299;SDS011;5195;48.562;9.192;2024-03-23T19:14:52;0.83;;;0.83;;
10299;SDS011;5195;48.562;9.192;2024-03-23T19:17:18;1.55;;;1.10;;
10299;SDS011;5195;48.562;9.192;2024-03-23T19:19:43;0.80;;;0.80;;
10299;SDS011;5195;48.562;9.192;2024-03-23T19:22:09;1.17;;;0.80;;
10299;SDS011;5195;48.562;9.192;2024-03-23T19:24:34;0.93;;;0.73;;
10299;SDS011;5195;48.562;9.192;2024-03-23T19:27:00;0.83;;;0.80;;
10299;SDS011;5195;48.562;9.192;2024-03-23T19:29:25;0.70;;;0.70;;
10299;SDS011;5195;48.562;9.192;2024-03-23T19:31:51;1.63;;;0.90;;
10299;SDS011;5195;48.562;9.192;2024-03-23T19:34:17;5.43;;;1.20;;
10299;SDS011;5195;48.562;9.192;2024-03-23T19:36:43;0.87;;;0.87;;
10299;SDS011;5195;48.562;9.192;2024-03-23T19:39:10;4.27;;;3.97;;
10299;SDS011;5195;48.562;9.192;2024-03-23T19:41:36;5.97;;;5.47;;
10299;SDS011;5195;48.562;9.192;2024-03-23T19:44:01;3.60;;;3.30;;
10299;SDS011;5195;48.562;9.192;2024-03-23T19:46:28;2.77;;;2.57;;
10299;SDS011;5195;48.562;9.192;2024-03-23T19:48:54;1.23;;;1.03;;
10299;SDS011;5195;48.562;9.192;2024-03-23T19:51:19;3.00;;;1.37;;
10299;SDS011;5195;48.562;9.192;2024-03-23T19:53:45;1.53;;;1.30;;
10299;SDS011;5195;48.562;9.192;2024-03-23T19:56:12;2.50;;;1.80;;
10299;SDS011;5195;48.562;9.192;2024-03-23T19:58:37;2.93;;;1.33;;
10299;SDS011;5195;48.562;9.192;2024-03-23T20:01:13;1.83;;;1.40;;
10299;SDS011;5195;48.562;9.192;2024-03-23T20:03:39;1.48;;;1.05;;
10299;SDS011;5195;48.562;9.192;2024-03-23T20:06:04;1.70;;;1.60;;
10299;SDS011;5195;48.562;9.192;2024-03-23T20:08:30;2.13;;;2.03;;
10299;SDS011;5195;48.562;9.192;2024-03-23T20:10:56;3.72;;;1.65;;
10299;SDS011;5195;48.562;9.192;2024-03-23T20:13:22;2.63;;;2.43;;
10299;SDS011;5195;48.562;9.192;2024-03-23T20:15:56;4.10;;;3.80;;
10299;SDS011;5195;48.562;9.192;2024-03-23T20:18:21;1.87;;;1.80;;
10299;SDS011;5195;48.562;9.192;2024-03-23T20:20:47;2.43;;;1.40;;
10299;SDS011;5195;48.562;9.192;2024-03-23T20:23:12;1.40;;;1.30;;
10299;SDS011;5195;48.562;9.192;2024-03-23T20:25:39;2.57;;;1.27;;
10299;SDS011;5195;48.562;9.192;2024-03-23T20:28:04;1.27;;;1.13;;
10299;SDS011;5195;48.562;9.192;2024-03-23T20:30:30;2.07;;;1.40;;
10299;SDS011;5195;48.562;9.192;2024-03-23T20:32:56;2.17;;;1.42;;
10299;SDS011;5195;48.562;9.192;2024-03-23T20:35:23;2.07;;;1.13;;
10299;SDS011;5195;48.562;9.192;2024-03-23T20:37:48;1.65;;;0.98;;
10299;SDS011;5195;48.562;9.192;2024-03-23T20:40:14;1.27;;;1.17;;
10299;SDS011;5195;48.562;9.192;2024-03-23T20:42:39;1.57;;;1.47;;
10299;SDS011;5195;48.562;9.192;2024-03-23T20:45:05;2.00;;;1.50;;
10299;SDS011;5195;48.562;9.192;2024-03-23T20:47:32;2.00;;;1.50;;
10299;SDS011;5195;48.562;9.192;2024-03-23T20:49:57;1.63;;;1.40;;
10299;SDS011;5195;48.562;9.192;2024-03-23T20:52:24;1.50;;;1.40;;
10299;SDS011;5195;48.562;9.192;2024-03-23T20:54:49;1.85;;;1.70;;
10299;SDS011;5195;48.562;9.192;2024-03-23T20:57:16;2.10;;;1.90;;
10299;SDS011;5195;48.562;9.192;2024-03-23T20:59:43;2.13;;;1.90;;
10299;SDS011;5195;48.562;9.192;2024-03-23T21:02:10;4.10;;;1.20;;
10299;SDS011;5195;48.562;9.192;2024-03-23T21:04:36;1.27;;;1.00;;
10299;SDS011;5195;48.562;9.192;2024-03-23T21:07:02;2.37;;;1.17;;
10299;SDS011;5195;48.562;9.192;2024-03-23T21:09:31;1.50;;;1.40;;
10299;SDS011;5195;48.562;9.192;2024-03-23T21:11:55;2.10;;;1.43;;
10299;SDS011;5195;48.562;9.192;2024-03-23T21:14:20;2.40;;;1.40;;
10299;SDS011;5195;48.562;9.192;2024-03-23T21:16:47;2.40;;;2.10;;
10299;SDS011;5195;48.562;9.192;2024-03-23T21:19:13;1.67;;;1.50;;
10299;SDS011;5195;48.562;9.192;2024-03-23T21:21:39;1.77;;;1.62;;
10299;SDS011;5195;48.562;9.192;2024-03-23T21:24:05;1.43;;;1.33;;
10299;SDS011;5195;48.562;9.192;2024-03-23T21:26:31;1.50;;;1.40;;
10299;SDS011;5195;48.562;9.192;2024-03-23T21:28:56;1.43;;;1.33;;
10299;SDS011;5195;48.562;9.192;2024-03-23T21:31:22;1.53;;;1.33;;
10299;SDS011;5195;48.562;9.192;2024-03-23T21:33:47;1.30;;;1.30;;
10299;SDS011;5195;48.562;9.192;2024-03-23T21:36:14;1.10;;;1.00;;
10299;SDS011;5195;48.562;9.192;2024-03-23T21:38:40;2.58;;;1.12;;
10299;SDS011;5195;48.562;9.192;2024-03-23T21:41:05;2.23;;;1.37;;
10299;SDS011;5195;48.562;9.192;2024-03-23T21:43:31;1.63;;;1.27;;
10299;SDS011;5195;48.562;9.192;2024-03-23T21:45:59;1.53;;;1.20;;
10299;SDS011;5195;48.562;9.192;2024-03-23T21:48:30;1.60;;;1.40;;
10299;SDS011;5195;48.562;9.192;2024-03-23T21:50:58;1.30;;;1.20;;
10299;SDS011;5195;48.562;9.192;2024-03-23T21:53:21;2.62;;;1.42;;
10299;SDS011;5195;48.562;9.192;2024-03-23T21:55:50;1.13;;;1.13;;
10299;SDS011;5195;48.562;9.192;2024-03-23T21:58:16;1.37;;;1.27;;
10299;SDS011;5195;48.562;9.192;2024-03-23T22:00:41;1.62;;;1.23;;
10299;SDS011;5195;48.562;9.192;2024-03-23T22:03:07;1.98;;;1.20;;
10299;SDS011;5195;48.562;9.192;2024-03-23T22:05:32;1.45;;;1.35;;
10299;SDS011;5195;48.562;9.192;2024-03-23T22:07:58;1.12;;;1.10;;
10299;SDS011;5195;48.562;9.192;2024-03-23T22:10:24;1.33;;;1.23;;
10299;SDS011;5195;48.562;9.192;2024-03-23T22:12:49;1.20;;;1.20;;
10299;SDS011;5195;48.562;9.192;2024-03-23T22:15:16;1.45;;;1.02;;
10299;SDS011;5195;48.562;9.192;2024-03-23T22:17:41;1.33;;;1.13;;
10299;SDS011;5195;48.562;9.192;2024-03-23T22:20:07;1.00;;;0.87;;
10299;SDS011;5195;48.562;9.192;2024-03-23T22:22:33;1.10;;;1.00;;
10299;SDS011;5195;48.562;9.192;2024-03-23T22:24:58;0.87;;;0.80;;
10299;SDS011;5195;48.562;9.192;2024-03-23T22:27:25;1.10;;;1.00;;
10299;SDS011;5195;48.562;9.192;2024-03-23T22:29:51;0.90;;;0.90;;
10299;SDS011;5195;48.562;9.192;2024-03-23T22:32:17;1.30;;;1.20;;
10299;SDS011;5195;48.562;9.192;2024-03-23T22:34:43;1.25;;;1.05;;
10299;SDS011;5195;48.562;9.192;2024-03-23T22:37:09;1.53;;;0.90;;
10299;SDS011;5195;48.562;9.192;2024-03-23T22:39:35;0.80;;;0.80;;
10299;SDS011;5195;48.562;9.192;2024-03-23T22:42:01;1.00;;;0.73;;
10299;SDS011;5195;48.562;9.192;2024-03-23T22:44:26;0.80;;;0.80;;
10299;SDS011;5195;48.562;9.192;2024-03-23T22:46:53;1.70;;;0.70;;
10299;SDS011;5195;48.562;9.192;2024-03-23T22:49:18;2.20;;;0.70;;
10299;SDS011;5195;48.562;9.192;2024-03-23T22:51:44;0.90;;;0.80;;
10299;SDS011;5195;48.562;9.192;2024-03-23T22:54:13;1.00;;;0.80;;
10299;SDS011;5195;48.562;9.192;2024-03-23T22:56:38;1.50;;;0.70;;